sensor_id;sensor_type;location;lat;lon;timestamp;temperature;humidity
48264;DHT22;34086;51.076;13.722;2023-11-21T00:00:08;9.00;99.90
48264;DHT22;34086;51.076;13.722;2023-11-21T00:01:13;9.10;99.90
48264;DHT22;34086;51.076;13.722;2023-11-21T00:02:14;9.10;99.90
48264;DHT22;34086;51.076;13.722;2023-11-21T00:03:14;9.10;99.90
48264;DHT22;34086;51.076;13.722;2023-11-21T00:04:15;9.10;99.90
48264;DHT22;34086;51.076;13.722;2023-11-21T00:05:16;9.10;99.90
48264;DHT22;34086;51.076;13.722;2023-11-21T00:06:16;9.10;99.90
48264;DHT22;34086;51.076;13.722;2023-11-21T00:07:18;9.00;99.90
48264;DHT22;34086;51.076;13.722;2023-11-21T00:08:19;9.10;99.90
48264;DHT22;34086;51.076;13.722;2023-11-21T00:09:19;9.10;99.90
48264;DHT22;34086;51.076;13.722;2023-11-21T00:10:20;9.10;99.90
48264;DHT22;34086;51.076;13.722;2023-11-21T00:11:20;9.10;99.90
48264;DHT22;34086;51.076;13.722;2023-11-21T00:12:21;9.10;99.90
48264;DHT22;34086;51.076;13.722;2023-11-21T00:13:22;9.10;99.90
48264;DHT22;34086;51.076;13.722;2023-11-21T00:14:22;9.10;99.90
48264;DHT22;34086;51.076;13.722;2023-11-21T00:15:23;9.10;99.90
48264;DHT22;34086;51.076;13.722;2023-11-21T00:16:24;9.10;99.90
48264;DHT22;34086;51.076;13.722;2023-11-21T00:17:26;9.10;99.90
48264;DHT22;34086;51.076;13.722;2023-11-21T00:18:26;9.10;99.90
48264;DHT22;34086;51.076;13.722;2023-11-21T00:19:27;9.10;99.90
48264;DHT22;34086;51.076;13.722;2023-11-21T00:20:28;9.10;99.90
48264;DHT22;34086;51.076;13.722;2023-11-21T00:21:28;9.10;99.90
48264;DHT22;34086;51.076;13.722;2023-11-21T00:22:29;9.10;99.90
48264;DHT22;34086;51.076;13.722;2023-11-21T00:23:29;9.10;99.90
48264;DHT22;34086;51.076;13.722;2023-11-21T00:24:30;9.10;99.90
48264;DHT22;34086;51.076;13.722;2023-11-21T00:25:30;9.10;99.90
48264;DHT22;34086;51.076;13.722;2023-11-21T00:26:32;9.10;99.90
48264;DHT22;34086;51.076;13.722;2023-11-21T00:27:38;9.10;99.90
48264;DHT22;34086;51.076;13.722;2023-11-21T00:28:39;9.10;99.90
48264;DHT22;34086;51.076;13.722;2023-11-21T00:29:40;9.10;99.90
48264;DHT22;34086;51.076;13.722;2023-11-21T00:30:41;9.10;99.90
48264;DHT22;34086;51.076;13.722;2023-11-21T00:31:41;9.10;99.90
48264;DHT22;34086;51.076;13.722;2023-11-21T00:32:42;9.10;99.90
48264;DHT22;34086;51.076;13.722;2023-11-21T00:33:43;9.10;99.90
48264;DHT22;34086;51.076;13.722;2023-11-21T00:34:44;9.10;99.90
48264;DHT22;34086;51.076;13.722;2023-11-21T00:35:44;9.10;99.90
48264;DHT22;34086;51.076;13.722;2023-11-21T00:36:45;9.10;99.90
48264;DHT22;34086;51.076;13.722;2023-11-21T00:37:46;9.10;99.90
48264;DHT22;34086;51.076;13.722;2023-11-21T00:38:46;9.10;99.90
48264;DHT22;34086;51.076;13.722;2023-11-21T00:39:49;9.10;99.90
48264;DHT22;34086;51.076;13.722;2023-11-21T00:40:49;9.10;99.90
48264;DHT22;34086;51.076;13.722;2023-11-21T00:41:51;9.10;99.90
48264;DHT22;34086;51.076;13.722;2023-11-21T00:42:52;9.10;99.90
48264;DHT22;34086;51.076;13.722;2023-11-21T00:43:54;9.10;99.90
48264;DHT22;34086;51.076;13.722;2023-11-21T00:44:56;9.10;99.90
48264;DHT22;34086;51.076;13.722;2023-11-21T00:45:56;9.10;99.90
48264;DHT22;34086;51.076;13.722;2023-11-21T00:46:57;9.10;99.90
48264;DHT22;34086;51.076;13.722;2023-11-21T00:47:58;9.10;99.90
48264;DHT22;34086;51.076;13.722;2023-11-21T00:48:58;9.10;99.90
48264;DHT22;34086;51.076;13.722;2023-11-21T00:49:59;9.10;99.90
48264;DHT22;34086;51.076;13.722;2023-11-21T00:50:59;9.10;99.90
48264;DHT22;34086;51.076;13.722;2023-11-21T00:52:00;9.10;99.90
48264;DHT22;34086;51.076;13.722;2023-11-21T00:53:02;9.10;99.90
48264;DHT22;34086;51.076;13.722;2023-11-21T00:54:03;9.10;99.90
48264;DHT22;34086;51.076;13.722;2023-11-21T00:55:04;9.10;99.90
48264;DHT22;34086;51.076;13.722;2023-11-21T00:56:07;9.10;99.90
48264;DHT22;34086;51.076;13.722;2023-11-21T00:57:08;9.10;99.90
48264;DHT22;34086;51.076;13.722;2023-11-21T00:58:09;9.10;99.90
48264;DHT22;34086;51.076;13.722;2023-11-21T00:59:10;9.00;99.90
48264;DHT22;34086;51.076;13.722;2023-11-21T01:00:11;9.00;99.90
48264;DHT22;34086;51.076;13.722;2023-11-21T01:01:20;9.10;99.90
48264;DHT22;34086;51.076;13.722;2023-11-21T01:02:22;9.00;99.90
48264;DHT22;34086;51.076;13.722;2023-11-21T01:03:23;9.10;99.90
48264;DHT22;34086;51.076;13.722;2023-11-21T01:04:23;9.10;99.90
48264;DHT22;34086;51.076;13.722;2023-11-21T01:05:24;9.00;99.90
48264;DHT22;34086;51.076;13.722;2023-11-21T01:06:25;9.00;99.90
48264;DHT22;34086;51.076;13.722;2023-11-21T01:07:25;9.00;99.90
48264;DHT22;34086;51.076;13.722;2023-11-21T01:08:27;9.00;99.90
48264;DHT22;34086;51.076;13.722;2023-11-21T01:09:29;9.10;99.90
48264;DHT22;34086;51.076;13.722;2023-11-21T01:10:30;9.10;99.90
48264;DHT22;34086;51.076;13.722;2023-11-21T01:11:31;9.10;99.90
48264;DHT22;34086;51.076;13.722;2023-11-21T01:12:32;9.10;99.90
48264;DHT22;34086;51.076;13.722;2023-11-21T01:13:32;9.10;99.90
48264;DHT22;34086;51.076;13.722;2023-11-21T01:14:33;9.10;99.90
48264;DHT22;34086;51.076;13.722;2023-11-21T01:15:34;9.10;99.90
48264;DHT22;34086;51.076;13.722;2023-11-21T01:16:35;9.10;99.90
48264;DHT22;34086;51.076;13.722;2023-11-21T01:17:36;9.10;99.90
48264;DHT22;34086;51.076;13.722;2023-11-21T01:18:37;9.10;99.90
48264;DHT22;34086;51.076;13.722;2023-11-21T01:19:38;9.10;99.90
48264;DHT22;34086;51.076;13.722;2023-11-21T01:20:38;9.10;99.90
48264;DHT22;34086;51.076;13.722;2023-11-21T01:21:40;9.10;99.90
48264;DHT22;34086;51.076;13.722;2023-11-21T01:22:41;9.10;99.90
48264;DHT22;34086;51.076;13.722;2023-11-21T01:23:41;9.10;99.90
48264;DHT22;34086;51.076;13.722;2023-11-21T01:24:42;9.10;99.90
48264;DHT22;34086;51.076;13.722;2023-11-21T01:25:43;9.10;99.90
48264;DHT22;34086;51.076;13.722;2023-11-21T01:26:44;9.10;99.90
48264;DHT22;34086;51.076;13.722;2023-11-21T01:27:47;9.10;99.90
48264;DHT22;34086;51.076;13.722;2023-11-21T01:28:47;9.10;99.90
48264;DHT22;34086;51.076;13.722;2023-11-21T01:29:52;9.10;99.90
48264;DHT22;34086;51.076;13.722;2023-11-21T01:30:54;9.10;99.90
48264;DHT22;34086;51.076;13.722;2023-11-21T01:31:56;9.10;99.90
48264;DHT22;34086;51.076;13.722;2023-11-21T01:32:58;9.10;99.90
48264;DHT22;34086;51.076;13.722;2023-11-21T01:33:59;9.10;99.90
48264;DHT22;34086;51.076;13.722;2023-11-21T01:35:00;9.10;99.90
48264;DHT22;34086;51.076;13.722;2023-11-21T01:36:01;9.10;99.90
48264;DHT22;34086;51.076;13.722;2023-11-21T01:37:01;9.10;99.90
48264;DHT22;34086;51.076;13.722;2023-11-21T01:38:05;9.10;99.90
48264;DHT22;34086;51.076;13.722;2023-11-21T01:39:08;9.10;99.90
48264;DHT22;34086;51.076;13.722;2023-11-21T01:40:11;9.10;99.90
48264;DHT22;34086;51.076;13.722;2023-11-21T01:41:14;9.10;99.90
48264;DHT22;34086;51.076;13.722;2023-11-21T01:42:15;9.10;99.90
48264;DHT22;34086;51.076;13.722;2023-11-21T01:43:15;9.10;99.90
48264;DHT22;34086;51.076;13.722;2023-11-21T01:44:17;9.10;99.90
48264;DHT22;34086;51.076;13.722;2023-11-21T01:45:19;9.10;99.90
48264;DHT22;34086;51.076;13.722;2023-11-21T01:46:21;9.10;99.90
48264;DHT22;34086;51.076;13.722;2023-11-21T01:47:22;9.10;99.90
48264;DHT22;34086;51.076;13.722;2023-11-21T01:48:24;9.10;99.90
48264;DHT22;34086;51.076;13.722;2023-11-21T01:49:25;9.10;99.90
48264;DHT22;34086;51.076;13.722;2023-11-21T01:50:25;9.10;99.90
48264;DHT22;34086;51.076;13.722;2023-11-21T01:51:26;9.10;99.90
48264;DHT22;34086;51.076;13.722;2023-11-21T01:52:27;9.10;99.90
48264;DHT22;34086;51.076;13.722;2023-11-21T01:53:30;9.10;99.90
48264;DHT22;34086;51.076;13.722;2023-11-21T01:54:30;9.10;99.90
48264;DHT22;34086;51.076;13.722;2023-11-21T01:55:34;9.10;99.90
48264;DHT22;34086;51.076;13.722;2023-11-21T01:56:35;9.10;99.90
48264;DHT22;34086;51.076;13.722;2023-11-21T01:57:37;9.10;99.90
48264;DHT22;34086;51.076;13.722;2023-11-21T01:58:40;9.10;99.90
48264;DHT22;34086;51.076;13.722;2023-11-21T01:59:42;9.10;99.90
48264;DHT22;34086;51.076;13.722;2023-11-21T02:00:43;9.10;99.90
48264;DHT22;34086;51.076;13.722;2023-11-21T02:01:44;9.10;99.90
48264;DHT22;34086;51.076;13.722;2023-11-21T02:02:45;9.10;99.90
48264;DHT22;34086;51.076;13.722;2023-11-21T02:03:46;9.10;99.90
48264;DHT22;34086;51.076;13.722;2023-11-21T02:04:47;9.10;99.90
48264;DHT22;34086;51.076;13.722;2023-11-21T02:05:48;9.10;99.90
48264;DHT22;34086;51.076;13.722;2023-11-21T02:06:48;9.10;99.90
48264;DHT22;34086;51.076;13.722;2023-11-21T02:07:51;9.10;99.90
48264;DHT22;34086;51.076;13.722;2023-11-21T02:08:53;9.10;99.90
48264;DHT22;34086;51.076;13.722;2023-11-21T02:09:53;9.10;99.90
48264;DHT22;34086;51.076;13.722;2023-11-21T02:10:54;9.10;99.90
48264;DHT22;34086;51.076;13.722;2023-11-21T02:11:55;9.10;99.90
48264;DHT22;34086;51.076;13.722;2023-11-21T02:12:56;9.10;99.90
48264;DHT22;34086;51.076;13.722;2023-11-21T02:13:59;9.10;99.90
48264;DHT22;34086;51.076;13.722;2023-11-21T02:15:04;9.10;99.90
48264;DHT22;34086;51.076;13.722;2023-11-21T02:16:10;9.10;99.90
48264;DHT22;34086;51.076;13.722;2023-11-21T02:17:13;9.10;99.90
48264;DHT22;34086;51.076;13.722;2023-11-21T02:18:13;9.10;99.90
48264;DHT22;34086;51.076;13.722;2023-11-21T02:19:18;9.10;99.90
48264;DHT22;34086;51.076;13.722;2023-11-21T02:20:25;9.10;99.90
48264;DHT22;34086;51.076;13.722;2023-11-21T02:21:27;9.10;99.90
48264;DHT22;34086;51.076;13.722;2023-11-21T02:22:31;9.10;99.90
48264;DHT22;34086;51.076;13.722;2023-11-21T02:23:33;9.10;99.90
48264;DHT22;34086;51.076;13.722;2023-11-21T02:24:33;9.10;99.90
48264;DHT22;34086;51.076;13.722;2023-11-21T02:25:34;9.10;99.90
48264;DHT22;34086;51.076;13.722;2023-11-21T02:26:37;9.10;99.90
48264;DHT22;34086;51.076;13.722;2023-11-21T02:27:38;9.10;99.90
48264;DHT22;34086;51.076;13.722;2023-11-21T02:28:38;9.10;99.90
48264;DHT22;34086;51.076;13.722;2023-11-21T02:29:39;9.10;99.90
48264;DHT22;34086;51.076;13.722;2023-11-21T02:30:40;9.10;99.90
48264;DHT22;34086;51.076;13.722;2023-11-21T02:31:40;9.10;99.90
48264;DHT22;34086;51.076;13.722;2023-11-21T02:32:48;9.10;99.90
48264;DHT22;34086;51.076;13.722;2023-11-21T02:33:49;9.10;99.90
48264;DHT22;34086;51.076;13.722;2023-11-21T02:34:50;9.10;99.90
48264;DHT22;34086;51.076;13.722;2023-11-21T02:35:50;9.10;99.90
48264;DHT22;34086;51.076;13.722;2023-11-21T02:36:55;9.10;99.90
48264;DHT22;34086;51.076;13.722;2023-11-21T02:37:56;9.00;99.90
48264;DHT22;34086;51.076;13.722;2023-11-21T02:38:56;9.00;99.90
48264;DHT22;34086;51.076;13.722;2023-11-21T02:39:57;9.00;99.90
48264;DHT22;34086;51.076;13.722;2023-11-21T02:40:58;9.00;99.90
48264;DHT22;34086;51.076;13.722;2023-11-21T02:41:59;8.90;99.90
48264;DHT22;34086;51.076;13.722;2023-11-21T02:43:00;8.90;99.90
48264;DHT22;34086;51.076;13.722;2023-11-21T02:44:01;8.90;99.90
48264;DHT22;34086;51.076;13.722;2023-11-21T02:45:01;8.90;99.90
48264;DHT22;34086;51.076;13.722;2023-11-21T02:46:02;8.90;99.90
48264;DHT22;34086;51.076;13.722;2023-11-21T02:47:02;8.80;99.90
48264;DHT22;34086;51.076;13.722;2023-11-21T02:48:04;8.80;99.90
48264;DHT22;34086;51.076;13.722;2023-11-21T02:49:06;8.80;99.90
48264;DHT22;34086;51.076;13.722;2023-11-21T02:50:07;8.80;99.90
48264;DHT22;34086;51.076;13.722;2023-11-21T02:51:09;8.80;99.90
48264;DHT22;34086;51.076;13.722;2023-11-21T02:52:09;8.70;99.90
48264;DHT22;34086;51.076;13.722;2023-11-21T02:53:10;8.70;99.90
48264;DHT22;34086;51.076;13.722;2023-11-21T02:54:11;8.70;99.90
48264;DHT22;34086;51.076;13.722;2023-11-21T02:55:12;8.70;99.90
48264;DHT22;34086;51.076;13.722;2023-11-21T02:56:13;8.70;99.90
48264;DHT22;34086;51.076;13.722;2023-11-21T02:57:13;8.70;99.90
48264;DHT22;34086;51.076;13.722;2023-11-21T02:58:14;8.70;99.90
48264;DHT22;34086;51.076;13.722;2023-11-21T02:59:15;8.70;99.90
48264;DHT22;34086;51.076;13.722;2023-11-21T03:00:16;8.60;99.90
48264;DHT22;34086;51.076;13.722;2023-11-21T03:01:17;8.70;99.90
48264;DHT22;34086;51.076;13.722;2023-11-21T03:02:18;8.70;99.90
48264;DHT22;34086;51.076;13.722;2023-11-21T03:03:18;8.70;99.90
48264;DHT22;34086;51.076;13.722;2023-11-21T03:04:19;8.60;99.90
48264;DHT22;34086;51.076;13.722;2023-11-21T03:05:19;8.60;99.90
48264;DHT22;34086;51.076;13.722;2023-11-21T03:06:20;8.60;99.90
48264;DHT22;34086;51.076;13.722;2023-11-21T03:07:21;8.60;99.90
48264;DHT22;34086;51.076;13.722;2023-11-21T03:08:22;8.60;99.90
48264;DHT22;34086;51.076;13.722;2023-11-21T03:09:22;8.60;99.90
48264;DHT22;34086;51.076;13.722;2023-11-21T03:10:23;8.60;99.90
48264;DHT22;34086;51.076;13.722;2023-11-21T03:11:24;8.60;99.90
48264;DHT22;34086;51.076;13.722;2023-11-21T03:12:24;8.60;99.90
48264;DHT22;34086;51.076;13.722;2023-11-21T03:13:26;8.60;99.90
48264;DHT22;34086;51.076;13.722;2023-11-21T03:14:26;8.60;99.90
48264;DHT22;34086;51.076;13.722;2023-11-21T03:15:27;8.60;99.90
48264;DHT22;34086;51.076;13.722;2023-11-21T03:16:28;8.60;99.90
48264;DHT22;34086;51.076;13.722;2023-11-21T03:17:29;8.60;99.90
48264;DHT22;34086;51.076;13.722;2023-11-21T03:18:29;8.60;99.90
48264;DHT22;34086;51.076;13.722;2023-11-21T03:19:31;8.60;99.90
48264;DHT22;34086;51.076;13.722;2023-11-21T03:20:31;8.60;99.90
48264;DHT22;34086;51.076;13.722;2023-11-21T03:21:32;8.60;99.90
48264;DHT22;34086;51.076;13.722;2023-11-21T03:22:32;8.60;99.90
48264;DHT22;34086;51.076;13.722;2023-11-21T03:23:33;8.60;99.90
48264;DHT22;34086;51.076;13.722;2023-11-21T03:24:34;8.60;99.90
48264;DHT22;34086;51.076;13.722;2023-11-21T03:25:34;8.60;99.90
48264;DHT22;34086;51.076;13.722;2023-11-21T03:26:35;8.60;99.90
48264;DHT22;34086;51.076;13.722;2023-11-21T03:27:37;8.50;99.90
48264;DHT22;34086;51.076;13.722;2023-11-21T03:28:39;8.50;99.90
48264;DHT22;34086;51.076;13.722;2023-11-21T03:29:40;8.50;99.90
48264;DHT22;34086;51.076;13.722;2023-11-21T03:30:40;8.50;99.90
48264;DHT22;34086;51.076;13.722;2023-11-21T03:31:41;8.50;99.90
48264;DHT22;34086;51.076;13.722;2023-11-21T03:32:41;8.50;99.90
48264;DHT22;34086;51.076;13.722;2023-11-21T03:33:42;8.50;99.90
48264;DHT22;34086;51.076;13.722;2023-11-21T03:34:58;8.50;99.90
48264;DHT22;34086;51.076;13.722;2023-11-21T03:35:59;8.40;99.90
48264;DHT22;34086;51.076;13.722;2023-11-21T03:37:00;8.50;99.90
48264;DHT22;34086;51.076;13.722;2023-11-21T03:38:01;8.40;99.90
48264;DHT22;34086;51.076;13.722;2023-11-21T03:39:03;8.40;99.90
48264;DHT22;34086;51.076;13.722;2023-11-21T03:40:06;8.50;99.90
48264;DHT22;34086;51.076;13.722;2023-11-21T03:41:08;8.50;99.90
48264;DHT22;34086;51.076;13.722;2023-11-21T03:42:10;8.50;99.90
48264;DHT22;34086;51.076;13.722;2023-11-21T03:43:11;8.50;99.90
48264;DHT22;34086;51.076;13.722;2023-11-21T03:44:11;8.50;99.90
48264;DHT22;34086;51.076;13.722;2023-11-21T03:45:12;8.40;99.90
48264;DHT22;34086;51.076;13.722;2023-11-21T03:46:13;8.50;99.90
48264;DHT22;34086;51.076;13.722;2023-11-21T03:47:13;8.40;99.90
48264;DHT22;34086;51.076;13.722;2023-11-21T03:48:14;8.50;99.90
48264;DHT22;34086;51.076;13.722;2023-11-21T03:49:15;8.50;99.90
48264;DHT22;34086;51.076;13.722;2023-11-21T03:50:16;8.40;99.90
48264;DHT22;34086;51.076;13.722;2023-11-21T03:51:18;8.40;99.90
48264;DHT22;34086;51.076;13.722;2023-11-21T03:52:19;8.40;99.90
48264;DHT22;34086;51.076;13.722;2023-11-21T03:53:19;8.40;99.90
48264;DHT22;34086;51.076;13.722;2023-11-21T03:54:20;8.40;99.90
48264;DHT22;34086;51.076;13.722;2023-11-21T03:55:21;8.50;99.90
48264;DHT22;34086;51.076;13.722;2023-11-21T03:56:21;8.40;99.90
48264;DHT22;34086;51.076;13.722;2023-11-21T03:57:22;8.50;99.90
48264;DHT22;34086;51.076;13.722;2023-11-21T03:58:22;8.50;99.90
48264;DHT22;34086;51.076;13.722;2023-11-21T03:59:23;8.50;99.90
48264;DHT22;34086;51.076;13.722;2023-11-21T04:00:25;8.50;99.90
48264;DHT22;34086;51.076;13.722;2023-11-21T04:01:27;8.50;99.90
48264;DHT22;34086;51.076;13.722;2023-11-21T04:02:27;8.50;99.90
48264;DHT22;34086;51.076;13.722;2023-11-21T04:03:28;8.50;99.90
48264;DHT22;34086;51.076;13.722;2023-11-21T04:04:29;8.50;99.90
48264;DHT22;34086;51.076;13.722;2023-11-21T04:05:30;8.50;99.90
48264;DHT22;34086;51.076;13.722;2023-11-21T04:06:31;8.50;99.90
48264;DHT22;34086;51.076;13.722;2023-11-21T04:07:33;8.50;99.90
48264;DHT22;34086;51.076;13.722;2023-11-21T04:08:33;8.50;99.90
48264;DHT22;34086;51.076;13.722;2023-11-21T04:09:34;8.50;99.90
48264;DHT22;34086;51.076;13.722;2023-11-21T04:10:36;8.50;99.90
48264;DHT22;34086;51.076;13.722;2023-11-21T04:11:37;8.60;99.90
48264;DHT22;34086;51.076;13.722;2023-11-21T04:12:37;8.60;99.90
48264;DHT22;34086;51.076;13.722;2023-11-21T04:13:41;8.50;99.90
48264;DHT22;34086;51.076;13.722;2023-11-21T04:14:42;8.50;99.90
48264;DHT22;34086;51.076;13.722;2023-11-21T04:15:43;8.50;99.90
48264;DHT22;34086;51.076;13.722;2023-11-21T04:16:43;8.50;99.90
48264;DHT22;34086;51.076;13.722;2023-11-21T04:17:44;8.50;99.90
48264;DHT22;34086;51.076;13.722;2023-11-21T04:18:45;8.60;99.90
48264;DHT22;34086;51.076;13.722;2023-11-21T04:19:46;8.60;99.90
48264;DHT22;34086;51.076;13.722;2023-11-21T04:20:48;8.50;99.90
48264;DHT22;34086;51.076;13.722;2023-11-21T04:21:49;8.50;99.90
48264;DHT22;34086;51.076;13.722;2023-11-21T04:22:50;8.50;99.90
48264;DHT22;34086;51.076;13.722;2023-11-21T04:23:51;8.50;99.90
48264;DHT22;34086;51.076;13.722;2023-11-21T04:24:51;8.50;99.90
48264;DHT22;34086;51.076;13.722;2023-11-21T04:25:52;8.50;99.90
48264;DHT22;34086;51.076;13.722;2023-11-21T04:26:54;8.50;99.90
48264;DHT22;34086;51.076;13.722;2023-11-21T04:27:55;8.40;99.90
48264;DHT22;34086;51.076;13.722;2023-11-21T04:28:55;8.40;99.90
48264;DHT22;34086;51.076;13.722;2023-11-21T04:29:56;8.40;99.90
48264;DHT22;34086;51.076;13.722;2023-11-21T04:30:57;8.50;99.90
48264;DHT22;34086;51.076;13.722;2023-11-21T04:31:57;8.50;99.90
48264;DHT22;34086;51.076;13.722;2023-11-21T04:32:59;8.40;99.90
48264;DHT22;34086;51.076;13.722;2023-11-21T04:33:59;8.40;99.90
48264;DHT22;34086;51.076;13.722;2023-11-21T04:35:00;8.40;99.90
48264;DHT22;34086;51.076;13.722;2023-11-21T04:36:01;8.40;99.90
48264;DHT22;34086;51.076;13.722;2023-11-21T04:37:03;8.40;99.90
48264;DHT22;34086;51.076;13.722;2023-11-21T04:38:03;8.40;99.90
48264;DHT22;34086;51.076;13.722;2023-11-21T04:39:04;8.30;99.90
48264;DHT22;34086;51.076;13.722;2023-11-21T04:40:05;8.30;99.90
48264;DHT22;34086;51.076;13.722;2023-11-21T04:41:09;8.20;99.90
48264;DHT22;34086;51.076;13.722;2023-11-21T04:42:10;8.20;99.90
48264;DHT22;34086;51.076;13.722;2023-11-21T04:43:10;8.20;99.90
48264;DHT22;34086;51.076;13.722;2023-11-21T04:44:11;8.20;99.90
48264;DHT22;34086;51.076;13.722;2023-11-21T04:45:12;8.20;99.90
48264;DHT22;34086;51.076;13.722;2023-11-21T04:46:12;8.20;99.90
48264;DHT22;34086;51.076;13.722;2023-11-21T04:47:13;8.20;99.90
48264;DHT22;34086;51.076;13.722;2023-11-21T04:48:13;8.20;99.90
48264;DHT22;34086;51.076;13.722;2023-11-21T04:49:14;8.20;99.90
48264;DHT22;34086;51.076;13.722;2023-11-21T04:50:15;8.20;99.90
48264;DHT22;34086;51.076;13.722;2023-11-21T04:51:16;8.20;99.90
48264;DHT22;34086;51.076;13.722;2023-11-21T04:52:16;8.20;99.90
48264;DHT22;34086;51.076;13.722;2023-11-21T04:53:17;8.20;99.90
48264;DHT22;34086;51.076;13.722;2023-11-21T04:54:18;8.30;99.90
48264;DHT22;34086;51.076;13.722;2023-11-21T04:55:18;8.30;99.90
48264;DHT22;34086;51.076;13.722;2023-11-21T04:56:19;8.40;99.90
48264;DHT22;34086;51.076;13.722;2023-11-21T04:57:21;8.40;99.90
48264;DHT22;34086;51.076;13.722;2023-11-21T04:58:22;8.40;99.90
48264;DHT22;34086;51.076;13.722;2023-11-21T04:59:22;8.40;99.90
48264;DHT22;34086;51.076;13.722;2023-11-21T05:00:27;8.40;99.90
48264;DHT22;34086;51.076;13.722;2023-11-21T05:01:28;8.50;99.90
48264;DHT22;34086;51.076;13.722;2023-11-21T05:02:29;8.50;99.90
48264;DHT22;34086;51.076;13.722;2023-11-21T05:03:29;8.50;99.90
48264;DHT22;34086;51.076;13.722;2023-11-21T05:04:30;8.50;99.90
48264;DHT22;34086;51.076;13.722;2023-11-21T05:05:31;8.50;99.90
48264;DHT22;34086;51.076;13.722;2023-11-21T05:06:31;8.50;99.90
48264;DHT22;34086;51.076;13.722;2023-11-21T05:07:33;8.50;99.90
48264;DHT22;34086;51.076;13.722;2023-11-21T05:08:35;8.50;99.90
48264;DHT22;34086;51.076;13.722;2023-11-21T05:09:41;8.50;99.90
48264;DHT22;34086;51.076;13.722;2023-11-21T05:10:44;8.50;99.90
48264;DHT22;34086;51.076;13.722;2023-11-21T05:11:44;8.50;99.90
48264;DHT22;34086;51.076;13.722;2023-11-21T05:12:45;8.50;99.90
48264;DHT22;34086;51.076;13.722;2023-11-21T05:13:46;8.50;99.90
48264;DHT22;34086;51.076;13.722;2023-11-21T05:14:49;8.40;99.90
48264;DHT22;34086;51.076;13.722;2023-11-21T05:15:50;8.40;99.90
48264;DHT22;34086;51.076;13.722;2023-11-21T05:16:51;8.40;99.90
48264;DHT22;34086;51.076;13.722;2023-11-21T05:17:52;8.50;99.90
48264;DHT22;34086;51.076;13.722;2023-11-21T05:18:54;8.50;99.90
48264;DHT22;34086;51.076;13.722;2023-11-21T05:20:00;8.50;99.90
48264;DHT22;34086;51.076;13.722;2023-11-21T05:21:04;8.50;99.90
48264;DHT22;34086;51.076;13.722;2023-11-21T05:22:05;8.50;99.90
48264;DHT22;34086;51.076;13.722;2023-11-21T05:23:07;8.50;99.90
48264;DHT22;34086;51.076;13.722;2023-11-21T05:24:08;8.50;99.90
48264;DHT22;34086;51.076;13.722;2023-11-21T05:25:09;8.50;99.90
48264;DHT22;34086;51.076;13.722;2023-11-21T05:26:11;8.50;99.90
48264;DHT22;34086;51.076;13.722;2023-11-21T05:27:12;8.60;99.90
48264;DHT22;34086;51.076;13.722;2023-11-21T05:28:13;8.50;99.90
48264;DHT22;34086;51.076;13.722;2023-11-21T05:29:13;8.50;99.90
48264;DHT22;34086;51.076;13.722;2023-11-21T05:30:14;8.50;99.90
48264;DHT22;34086;51.076;13.722;2023-11-21T05:31:15;8.50;99.90
48264;DHT22;34086;51.076;13.722;2023-11-21T05:32:15;8.50;99.90
48264;DHT22;34086;51.076;13.722;2023-11-21T05:33:17;8.50;99.90
48264;DHT22;34086;51.076;13.722;2023-11-21T05:34:19;8.50;99.90
48264;DHT22;34086;51.076;13.722;2023-11-21T05:35:21;8.50;99.90
48264;DHT22;34086;51.076;13.722;2023-11-21T05:36:21;8.50;99.90
48264;DHT22;34086;51.076;13.722;2023-11-21T05:37:22;8.50;99.90
48264;DHT22;34086;51.076;13.722;2023-11-21T05:38:23;8.50;99.90
48264;DHT22;34086;51.076;13.722;2023-11-21T05:39:24;8.50;99.90
48264;DHT22;34086;51.076;13.722;2023-11-21T05:40:25;8.50;99.90
48264;DHT22;34086;51.076;13.722;2023-11-21T05:41:29;8.50;99.90
48264;DHT22;34086;51.076;13.722;2023-11-21T05:42:30;8.50;99.90
48264;DHT22;34086;51.076;13.722;2023-11-21T05:43:31;8.50;99.90
48264;DHT22;34086;51.076;13.722;2023-11-21T05:44:33;8.50;99.90
48264;DHT22;34086;51.076;13.722;2023-11-21T05:45:35;8.50;99.90
48264;DHT22;34086;51.076;13.722;2023-11-21T05:46:35;8.50;99.90
48264;DHT22;34086;51.076;13.722;2023-11-21T05:47:40;8.50;99.90
48264;DHT22;34086;51.076;13.722;2023-11-21T05:48:41;8.50;99.90
48264;DHT22;34086;51.076;13.722;2023-11-21T05:49:42;8.50;99.90
48264;DHT22;34086;51.076;13.722;2023-11-21T05:50:43;8.50;99.90
48264;DHT22;34086;51.076;13.722;2023-11-21T05:51:43;8.50;99.90
48264;DHT22;34086;51.076;13.722;2023-11-21T05:52:46;8.50;99.90
48264;DHT22;34086;51.076;13.722;2023-11-21T05:53:47;8.40;99.90
48264;DHT22;34086;51.076;13.722;2023-11-21T05:54:48;8.40;99.90
48264;DHT22;34086;51.076;13.722;2023-11-21T05:55:49;8.40;99.90
48264;DHT22;34086;51.076;13.722;2023-11-21T05:56:49;8.40;99.90
48264;DHT22;34086;51.076;13.722;2023-11-21T05:57:50;8.40;99.90
48264;DHT22;34086;51.076;13.722;2023-11-21T05:58:50;8.40;99.90
48264;DHT22;34086;51.076;13.722;2023-11-21T05:59:51;8.30;99.90
48264;DHT22;34086;51.076;13.722;2023-11-21T06:00:52;8.30;99.90
48264;DHT22;34086;51.076;13.722;2023-11-21T06:01:52;8.30;99.90
48264;DHT22;34086;51.076;13.722;2023-11-21T06:02:54;8.30;99.90
48264;DHT22;34086;51.076;13.722;2023-11-21T06:03:54;8.30;99.90
48264;DHT22;34086;51.076;13.722;2023-11-21T06:04:55;8.20;99.90
48264;DHT22;34086;51.076;13.722;2023-11-21T06:05:56;8.30;99.90
48264;DHT22;34086;51.076;13.722;2023-11-21T06:06:56;8.20;99.90
48264;DHT22;34086;51.076;13.722;2023-11-21T06:07:57;8.20;99.90
48264;DHT22;34086;51.076;13.722;2023-11-21T06:09:01;8.10;99.90
48264;DHT22;34086;51.076;13.722;2023-11-21T06:10:07;8.10;99.90
48264;DHT22;34086;51.076;13.722;2023-11-21T06:11:09;8.20;99.90
48264;DHT22;34086;51.076;13.722;2023-11-21T06:12:12;8.20;99.90
48264;DHT22;34086;51.076;13.722;2023-11-21T06:13:12;8.20;99.90
48264;DHT22;34086;51.076;13.722;2023-11-21T06:14:13;8.20;99.90
48264;DHT22;34086;51.076;13.722;2023-11-21T06:15:13;8.20;99.90
48264;DHT22;34086;51.076;13.722;2023-11-21T06:16:14;8.20;99.90
48264;DHT22;34086;51.076;13.722;2023-11-21T06:17:16;8.20;99.90
48264;DHT22;34086;51.076;13.722;2023-11-21T06:18:18;8.20;99.90
48264;DHT22;34086;51.076;13.722;2023-11-21T06:19:19;8.20;99.90
48264;DHT22;34086;51.076;13.722;2023-11-21T06:20:21;8.30;99.90
48264;DHT22;34086;51.076;13.722;2023-11-21T06:21:22;8.40;99.90
48264;DHT22;34086;51.076;13.722;2023-11-21T06:22:23;8.50;99.90
48264;DHT22;34086;51.076;13.722;2023-11-21T06:23:24;8.60;99.90
48264;DHT22;34086;51.076;13.722;2023-11-21T06:24:25;8.80;99.90
48264;DHT22;34086;51.076;13.722;2023-11-21T06:25:26;8.70;99.90
48264;DHT22;34086;51.076;13.722;2023-11-21T06:26:27;8.80;99.90